Flight Track Log - Related Links

Times and Time Zones

All times are in EDT time to prevent confusion due to time zone crossing. See the CTA400 flight status page for this flight to view local times or setup timezone preferences in your user account.


Time Position Orientation Groundspeed Altitude Reporting Facility
EDT Latitude Longitude Course Direction KTS MPH feet Rate Location/Type
Thu 07:08:37 PM 33.6586 -101.7856 92° East 104 120 4,200  Level Fort Worth Center
Thu 07:09:37 PM 33.6578 -101.7481 92° East 120 138 5,400 1,181 Climbing Fort Worth Center
Thu 07:10:44 PM 33.6531 -101.7028 97° East 115 132 6,700 1,039 Climbing Fort Worth Center
Thu 07:11:44 PM 33.6503 -101.6653 95° East 116 133 7,600 992 Climbing Fort Worth Center
Thu 07:12:45 PM 33.6517 -101.6228 88° East 119 137 8,700 934 Climbing Fort Worth Center
Thu 07:13:46 PM 33.6489 -101.5828 95° East 125 144 9,500 496 Climbing Fort Worth Center
Thu 07:14:46 PM 33.6461 -101.5378 94° East 134 154 9,700 99 Climbing Fort Worth Center
Thu 07:15:47 PM 33.6397 -101.4825 98° East 171 197 9,700 -54 Level Fort Worth Center
Thu 07:16:37 PM 33.6375 -101.4203 92° East 177 204 9,600  Descending Fort Worth Center
Thu 07:17:37 PM 33.6328 -101.3750 97° East 195 224 9,700  Climbing Fort Worth Center
Thu 07:18:37 PM 33.6283 -101.3100 95° East 190 219 9,600  Descending Fort Worth Center
Thu 07:19:37 PM 33.6239 -101.2575 96° East 180 207 9,700  Climbing Fort Worth Center
Thu 07:20:37 PM 33.6153 -101.1922 99° East 180 207 9,600 -50 Descending Fort Worth Center
Thu 07:21:37 PM 33.6086 -101.1394 99° East 180 207 9,600 50 Level Fort Worth Center
Thu 07:22:37 PM 33.5958 -101.0792 104° East 180 207 9,700  Climbing Fort Worth Center
Thu 07:23:37 PM 33.5933 -101.0242 93° East 180 207 9,600  Descending Fort Worth Center
Thu 07:24:37 PM 33.5867 -100.9592 97° East 180 207 9,700 50 Climbing Fort Worth Center
Thu 07:25:37 PM 33.5864 -100.9017 90° East 180 207 9,700 -50 Level Fort Worth Center
Thu 07:26:37 PM 33.5797 -100.8392 97° East 180 207 9,600 -100 Descending Fort Worth Center
Thu 07:27:37 PM 33.5728 -100.7842 99° East 180 207 9,500  Descending Fort Worth Center
Thu 07:28:37 PM 33.5619 -100.7189 101° East 180 207 9,600 100 Climbing Fort Worth Center
Thu 07:29:37 PM 33.5531 -100.6661 101° East 180 207 9,700 100 Climbing Fort Worth Center
Thu 07:30:37 PM 33.5439 -100.6083 101° East 180 207 9,800 -50 Climbing Fort Worth Center
Thu 07:31:37 PM 33.5372 -100.5483 98° East 180 207 9,600 -150 Descending Fort Worth Center
Thu 07:32:37 PM 33.5261 -100.4908 103° East 180 207 9,500 -50 Descending Fort Worth Center
Thu 07:33:37 PM 33.5172 -100.4306 100° East 180 207 9,500  Level Fort Worth Center
Thu 07:34:37 PM 33.5122 -100.3706 96° East 180 207 9,500 50 Level Fort Worth Center
Thu 07:35:37 PM 33.5031 -100.3131 101° East 180 207 9,600 100 Climbing Fort Worth Center
Thu 07:36:37 PM 33.4983 -100.2531 95° East 180 207 9,700  Climbing Fort Worth Center
Thu 07:37:37 PM 33.4892 -100.1931 100° East 180 207 9,600 -100 Descending Fort Worth Center
Thu 07:38:37 PM 33.4800 -100.1331 100° East 180 207 9,500  Descending Fort Worth Center
Thu 07:39:37 PM 33.4750 -100.0756 96° East 180 207 9,600  Climbing Fort Worth Center
Thu 07:40:37 PM 33.4681 -100.0106 97° East 180 207 9,500 -50 Descending Fort Worth Center
Thu 07:41:37 PM 33.4631 -99.9533 96° East 180 207 9,500  Level Fort Worth Center
Thu 07:42:37 PM 33.4558 -99.8908 98° East 180 207 9,500  Level Fort Worth Center
Thu 07:43:37 PM 33.4528 -99.8308 93° East 180 207 9,500 50 Level Fort Worth Center
Thu 07:44:37 PM 33.4478 -99.7736 96° East 180 207 9,600 50 Climbing Fort Worth Center
Thu 07:45:37 PM 33.4406 -99.7136 98° East 180 207 9,600 -50 Level Fort Worth Center
Thu 07:46:37 PM 33.4375 -99.6539 93° East 180 207 9,500  Descending Fort Worth Center
Thu 07:47:37 PM 33.4322 -99.5914 96° East 180 207 9,600  Climbing Fort Worth Center
Thu 07:48:37 PM 33.4267 -99.5464 98° East 180 207 9,500 -50 Descending Fort Worth Center
Thu 07:49:37 PM 33.4175 -99.4742 99° East 180 207 9,500  Level Fort Worth Center
Thu 07:50:37 PM 33.4122 -99.4142 96° East 180 207 9,500  Level Fort Worth Center
Thu 07:51:37 PM 33.4069 -99.3544 96° East 180 207 9,500  Level Fort Worth Center
Thu 07:52:37 PM 33.4017 -99.2944 96° East 180 207 9,500 -50 Level Fort Worth Center
Thu 07:53:37 PM 33.3983 -99.2397 94° East 175 201 9,400 -50 Descending Fort Worth Center
Thu 07:54:37 PM 33.3906 -99.1825 99° East 175 201 9,400 50 Level Fort Worth Center
Thu 07:55:37 PM 33.3831 -99.1225 98° East 180 207 9,500 100 Climbing Fort Worth Center
Thu 07:56:37 PM 33.3756 -99.0653 99° East 180 207 9,600 50 Climbing Fort Worth Center
Thu 07:57:37 PM 33.3700 -99.0078 97° East 180 207 9,600 50 Level Fort Worth Center
Thu 07:58:37 PM 33.3644 -98.9481 96° East 180 207 9,700  Climbing Fort Worth Center
Thu 08:00:00 PM 33.4064 -98.9052 23° Northeast  Level FlightAware Approximate
Thu 08:03:37 PM 33.3281 -98.6564 26° Northeast 180 207 9,600  Level Fort Worth Center
Thu 08:04:37 PM 33.3225 -98.6017 97° East 180 207 9,600  Level Fort Worth Center
Thu 08:05:37 PM 33.3167 -98.5444 97° East 180 207 9,600 -50 Level Fort Worth Center
Thu 08:06:37 PM 33.3089 -98.4772 98° East 180 207 9,500  Descending Fort Worth Center
Thu 08:07:00 PM 33.7564 -98.7177 26° Northeast  Level FlightAware Approximate
Thu 08:07:37 PM 33.3031 -98.4200 97° East 180 207 9,600  Level Fort Worth Center
Thu 08:08:00 PM 33.8055 -98.6887 26° Northeast  Level FlightAware Approximate
Thu 08:08:37 PM 33.2931 -98.3603 101° East 180 207 9,600  Level Fort Worth Center
Thu 08:09:37 PM 33.2811 -98.3081 105° East 180 207 9,600  Level Fort Worth Center
Thu 08:10:37 PM 33.2711 -98.2408 100° East 180 207 9,600  Level Fort Worth Center
Thu 08:11:37 PM 33.2631 -98.1886 100° East 180 207 9,600 -50 Level Fort Worth Center
Thu 08:12:37 PM 33.2508 -98.1239 103° East 180 207 9,500 -100 Descending Fort Worth Center
Thu 08:13:37 PM 33.2450 -98.0692 97° East 185 213 9,400 -400 Descending Fort Worth Center
Thu 08:14:37 PM 33.2347 -97.9994 100° East 185 213 8,700 -550 Descending Fort Worth Center
Thu 08:15:37 PM 33.2267 -97.9447 100° East 185 213 8,300 -450 Descending Fort Worth Center
Thu 08:16:37 PM 33.2167 -97.8778 100° East 185 213 7,800 -450 Descending Fort Worth Center
Thu 08:17:37 PM 33.2064 -97.8231 103° East 185 213 7,400 -500 Descending Fort Worth Center
Thu 08:18:37 PM 33.1961 -97.7561 100° East 185 213 6,800 -550 Descending Fort Worth Center
Thu 08:19:37 PM 33.1919 -97.6989 95° East 185 213 6,300 -600 Descending Fort Worth Center
Thu 08:20:37 PM 33.1881 -97.6294 94° East 185 213 5,600 -724 Descending Fort Worth Center
Thu 08:21:33 PM 33.1833 -97.5667 95° East 190 219 4,900 -621 Descending Dallas / Fort Worth TRACON
Thu 08:22:33 PM 33.1833 -97.5000 90° East 176 203 4,400 -446 Descending Dallas / Fort Worth TRACON
Thu 08:23:34 PM 33.1667 -97.4500 112° Southeast 174 200 4,000 -397 Descending Dallas / Fort Worth TRACON
Thu 08:24:34 PM 33.1500 -97.4000 112° Southeast 177 204 3,600 -400 Descending Dallas / Fort Worth TRACON
Thu 08:25:34 PM 33.1500 -97.3333 90° East 176 203 3,200 -450 Descending Dallas / Fort Worth TRACON
Thu 08:26:34 PM 33.1333 -97.2833 112° Southeast 174 200 2,700 -450 Descending Dallas / Fort Worth TRACON
Thu 08:27:34 PM 33.1167 -97.2333 112° Southeast 172 198 2,300 -146 Descending Dallas / Fort Worth TRACON
Thu 08:28:37 PM 33.1086 -97.1853 101° East 159 183 2,400 -101 Climbing Fort Worth Center
Thu 08:29:33 PM 33.1000 -97.1167 99° East 177 204 2,100 -207 Descending Dallas / Fort Worth TRACON
Thu 08:30:33 PM 33.1000 -97.0667 90° East 176 203 2,000  Descending Dallas / Fort Worth TRACON
Thu 08:32:00 PM 33.0345 -96.9542 125° Southeast  Level FlightAware Approximate
Thu 08:32:34 PM 33.1333 -96.9500 125° Southeast 179 206 2,100  Level Dallas / Fort Worth TRACON
Thu 08:33:33 PM 33.1333 -96.9167 90° East 169 194 2,100  Level Dallas / Fort Worth TRACON
Thu 08:34:33 PM 33.1000 -96.8833 140° Southeast 167 192 2,100 -50 Level Dallas / Fort Worth TRACON
Thu 08:35:33 PM 33.0500 -96.8667 164° South 160 184 2,000 -248 Descending Dallas / Fort Worth TRACON
Thu 08:36:34 PM 33.0167 -96.8500 157° South 128 147 1,600 -550 Descending Dallas / Fort Worth TRACON
Thu 08:37:33 PM 32.9833 -96.8333 157° South 114 131 900 -712 Descending Dallas / Fort Worth TRACON
Thu 08:39:00 PM 32.9667 -96.8333 121° Southeast  Level FlightAware Approximate

Login

Don't have an account? Register now (free) for customized features, flight alerts, and more!